createdAt,value
2018-09-01T00:01:59.294Z,4.47
2018-09-01T00:04:31.359Z,4.20
2018-09-01T00:07:03.346Z,4.23
2018-09-01T00:09:35.984Z,3.57
2018-09-01T00:12:08.043Z,3.67
2018-09-01T00:14:40.154Z,3.10
2018-09-01T00:17:18.818Z,3.67
2018-09-01T00:19:50.873Z,4.00
2018-09-01T00:22:23.039Z,2.90
2018-09-01T00:24:55.117Z,3.90
2018-09-01T00:27:27.161Z,3.77
2018-09-01T00:29:59.172Z,3.77
2018-09-01T00:32:31.238Z,3.73
2018-09-01T00:35:03.330Z,3.97
2018-09-01T00:37:41.166Z,2.97
2018-09-01T00:40:13.159Z,3.60
2018-09-01T00:42:45.169Z,3.60
2018-09-01T00:45:17.244Z,3.47
2018-09-01T00:47:49.299Z,3.70
2018-09-01T00:50:21.285Z,6.10
2018-09-01T00:52:53.311Z,3.97
2018-09-01T00:55:31.158Z,4.40
2018-09-01T00:58:03.168Z,6.03
2018-09-01T01:00:35.198Z,3.93
2018-09-01T01:03:07.211Z,4.70
2018-09-01T01:05:39.247Z,4.30
2018-09-01T01:08:11.339Z,5.30
2018-09-01T01:10:43.358Z,4.60
2018-09-01T01:13:15.528Z,4.57
2018-09-01T01:15:47.638Z,3.87
2018-09-01T01:18:19.671Z,3.90
2018-09-01T01:20:52.242Z,3.13
2018-09-01T01:23:24.517Z,3.83
2018-09-01T01:25:56.574Z,3.80
2018-09-01T01:28:28.634Z,4.40
2018-09-01T01:31:00.727Z,3.93
2018-09-01T01:33:32.932Z,4.10
2018-09-01T01:36:04.994Z,3.83
2018-09-01T01:38:37.039Z,4.47
2018-09-01T01:41:09.133Z,4.13
2018-09-01T01:43:41.110Z,4.40
2018-09-01T01:46:13.123Z,3.77
2018-09-01T01:48:45.183Z,4.33
2018-09-01T01:51:17.804Z,4.00
2018-09-01T01:53:49.842Z,4.77
2018-09-01T01:56:21.874Z,4.70
2018-09-01T01:58:53.894Z,4.87
2018-09-01T02:01:25.925Z,4.87
2018-09-01T02:03:57.938Z,4.93
2018-09-01T02:06:29.959Z,4.87
2018-09-01T02:09:02.028Z,4.93
2018-09-01T02:11:34.090Z,4.70
2018-09-01T02:14:06.085Z,4.93
2018-09-01T02:16:38.118Z,4.40
2018-09-01T02:19:10.103Z,5.00
2018-09-01T02:21:42.241Z,5.50
2018-09-01T02:24:14.294Z,4.87
2018-09-01T02:26:46.349Z,4.37
2018-09-01T02:29:18.326Z,3.87
2018-09-01T02:31:50.355Z,4.40
2018-09-01T02:34:22.481Z,4.43
2018-09-01T02:36:54.517Z,4.70
2018-09-01T02:39:26.561Z,4.70
2018-09-01T02:41:58.590Z,4.30
2018-09-01T02:44:30.627Z,4.53
2018-09-01T02:47:02.676Z,4.90
2018-09-01T02:49:34.686Z,4.83
2018-09-01T02:52:06.721Z,4.47
2018-09-01T02:54:38.733Z,4.63
2018-09-01T02:57:10.799Z,4.90
2018-09-01T02:59:42.833Z,4.40
2018-09-01T03:02:20.725Z,5.27
2018-09-01T03:04:52.734Z,4.67
2018-09-01T03:07:24.917Z,4.83
2018-09-01T03:09:56.962Z,4.47
2018-09-01T03:12:28.953Z,6.00
2018-09-01T03:15:00.994Z,5.97
2018-09-01T03:17:32.965Z,5.50
2018-09-01T03:20:05.107Z,6.20
2018-09-01T03:22:37.161Z,5.43
2018-09-01T03:25:09.179Z,7.47
2018-09-01T03:27:41.204Z,7.07
2018-09-01T03:30:13.217Z,6.40
2018-09-01T03:32:45.297Z,5.60
2018-09-01T03:35:17.296Z,5.37
2018-09-01T03:37:49.270Z,6.40
2018-09-01T03:40:21.290Z,6.00
2018-09-01T03:42:53.290Z,4.80
2018-09-01T03:45:26.363Z,7.23
2018-09-01T03:47:58.362Z,7.23
2018-09-01T03:50:30.427Z,6.37
2018-09-01T03:53:02.942Z,5.93
2018-09-01T03:55:34.970Z,6.30
2018-09-01T03:58:06.999Z,6.20
2018-09-01T04:00:39.067Z,5.23
2018-09-01T04:03:11.065Z,6.63
2018-09-01T04:05:43.093Z,7.27
2018-09-01T04:08:15.071Z,7.63
2018-09-01T04:10:47.093Z,6.27
2018-09-01T04:13:19.086Z,6.93
2018-09-01T04:15:51.089Z,6.83
2018-09-01T04:18:23.114Z,6.07
2018-09-01T04:20:55.141Z,8.47
2018-09-01T04:23:27.177Z,8.80
2018-09-01T04:25:59.654Z,8.20
2018-09-01T04:28:31.647Z,6.73
2018-09-01T04:31:03.714Z,6.77
2018-09-01T04:33:35.750Z,8.63
2018-09-01T04:36:07.745Z,6.87
2018-09-01T04:38:39.764Z,5.20
2018-09-01T04:41:12.170Z,5.60
2018-09-01T04:43:44.274Z,5.17
2018-09-01T04:46:16.281Z,5.47
2018-09-01T04:48:48.278Z,5.90
2018-09-01T04:51:20.327Z,5.00
2018-09-01T04:53:52.410Z,6.23
2018-09-01T04:56:24.483Z,5.00
2018-09-01T04:58:56.539Z,5.53
2018-09-01T05:01:28.633Z,5.63
2018-09-01T05:04:00.560Z,5.33
2018-09-01T05:06:32.550Z,4.73
2018-09-01T05:09:05.873Z,4.60
2018-09-01T05:11:37.907Z,5.57
2018-09-01T05:14:09.918Z,5.50
2018-09-01T05:16:41.939Z,6.23
2018-09-01T05:19:13.966Z,5.47
2018-09-01T05:21:46.011Z,5.63
2018-09-01T05:24:18.114Z,5.00
2018-09-01T05:26:50.200Z,4.93
2018-09-01T05:29:22.253Z,4.97
2018-09-01T05:31:54.290Z,4.50
2018-09-01T05:34:26.281Z,3.90
2018-09-01T05:36:58.323Z,3.70
2018-09-01T05:39:30.363Z,3.30
2018-09-01T05:42:02.421Z,2.80
2018-09-01T05:44:34.518Z,2.70
2018-09-01T05:47:06.518Z,2.87
2018-09-01T05:49:38.542Z,3.60
2018-09-01T05:52:10.554Z,4.13
2018-09-01T05:54:42.588Z,3.10
2018-09-01T05:57:14.631Z,4.00
2018-09-01T05:59:46.783Z,3.67
2018-09-01T06:02:18.819Z,3.93
2018-09-01T06:04:50.921Z,3.30
2018-09-01T06:07:22.936Z,3.37
2018-09-01T06:09:55.008Z,3.47
2018-09-01T06:12:26.988Z,4.20
2018-09-01T06:14:59.490Z,3.73
2018-09-01T06:17:31.643Z,4.07
2018-09-01T06:20:03.615Z,3.67
2018-09-01T06:22:35.895Z,3.97
2018-09-01T06:25:07.899Z,4.30
2018-09-01T06:27:43.290Z,3.17
2018-09-01T06:30:18.835Z,4.30
2018-09-01T06:32:50.812Z,3.93
2018-09-01T06:35:22.869Z,5.03
2018-09-01T06:37:54.909Z,4.90
2018-09-01T06:40:26.975Z,5.37
2018-09-01T06:42:59.055Z,5.13
2018-09-01T06:45:31.030Z,4.67
2018-09-01T06:48:03.062Z,5.10
2018-09-01T06:50:35.102Z,4.00
2018-09-01T06:53:07.130Z,5.22
2018-09-01T06:55:39.198Z,5.65
2018-09-01T06:58:11.418Z,5.00
2018-09-01T07:00:43.461Z,4.62
2018-09-01T07:03:15.458Z,5.28
2018-09-01T07:05:47.797Z,5.58
2018-09-01T07:08:20.094Z,5.72
2018-09-01T07:10:52.123Z,5.70
2018-09-01T07:13:24.131Z,4.87
2018-09-01T07:15:56.216Z,4.75
2018-09-01T07:18:30.813Z,3.75
2018-09-01T07:21:02.892Z,5.05
2018-09-01T07:23:34.879Z,4.42
2018-09-01T07:26:07.070Z,4.58
2018-09-01T07:28:39.147Z,4.25
2018-09-01T07:31:14.480Z,4.17
2018-09-01T07:33:46.247Z,4.58
2018-09-01T07:36:19.627Z,4.17
2018-09-01T07:38:53.066Z,4.87
2018-09-01T07:41:25.276Z,3.65
2018-09-01T07:43:57.294Z,4.12
2018-09-01T07:46:30.421Z,3.85
2018-09-01T07:49:03.780Z,5.35
2018-09-01T07:51:38.622Z,4.35
2018-09-01T07:54:11.956Z,4.92
2018-09-01T07:56:45.260Z,3.62
2018-09-01T07:59:17.302Z,3.58
2018-09-01T08:01:49.361Z,4.42
2018-09-01T08:04:21.356Z,4.75
2018-09-01T08:06:53.531Z,4.55
2018-09-01T08:09:25.576Z,4.28
2018-09-01T08:11:57.566Z,4.45
2018-09-01T08:14:30.437Z,4.45
2018-09-01T08:17:02.906Z,4.15
2018-09-01T08:19:34.979Z,4.05
2018-09-01T08:22:07.062Z,5.72
2018-09-01T08:24:39.122Z,4.80
2018-09-01T08:27:11.281Z,5.08
2018-09-01T08:29:43.272Z,4.37
2018-09-01T08:32:15.671Z,5.10
2018-09-01T08:34:50.094Z,5.20
2018-09-01T08:37:22.382Z,4.55
2018-09-01T08:39:54.405Z,4.47
2018-09-01T08:42:26.612Z,4.67
2018-09-01T08:44:58.705Z,4.75
2018-09-01T08:47:31.314Z,4.45
2018-09-01T08:50:04.471Z,4.60
2018-09-01T08:52:36.678Z,4.90
2018-09-01T08:55:08.725Z,5.37
2018-09-01T08:57:40.894Z,4.80
2018-09-01T09:00:13.070Z,5.37
2018-09-01T09:02:45.193Z,4.42
2018-09-01T09:05:17.289Z,3.95
2018-09-01T09:07:50.509Z,4.87
2018-09-01T09:10:22.562Z,4.92
2018-09-01T09:12:54.720Z,4.75
2018-09-01T09:15:26.805Z,5.85
2018-09-01T09:17:58.886Z,4.78
2018-09-01T09:20:30.949Z,5.08
2018-09-01T09:23:02.950Z,4.22
2018-09-01T09:25:34.970Z,4.90
2018-09-01T09:28:06.981Z,4.53
2018-09-01T09:30:39.114Z,4.30
2018-09-01T09:33:11.176Z,4.97
2018-09-01T09:35:43.179Z,4.72
2018-09-01T09:38:15.418Z,4.58
2018-09-01T09:40:47.452Z,4.12
2018-09-01T09:43:19.510Z,3.50
2018-09-01T09:45:51.577Z,4.60
2018-09-01T09:48:23.650Z,3.72
2018-09-01T09:50:55.729Z,4.20
2018-09-01T09:53:29.153Z,4.65
2018-09-01T09:56:01.201Z,5.10
2018-09-01T09:58:34.468Z,4.53
2018-09-01T10:01:11.193Z,5.37
2018-09-01T10:03:43.193Z,4.10
2018-09-01T10:06:15.182Z,3.85
2018-09-01T10:08:47.357Z,4.50
2018-09-01T10:11:19.406Z,4.17
2018-09-01T10:13:52.195Z,4.58
2018-09-01T10:16:24.226Z,4.30
2018-09-01T10:18:56.253Z,4.10
2018-09-01T10:21:29.265Z,3.95
2018-09-01T10:24:01.261Z,3.95
2018-09-01T10:26:33.300Z,3.70
2018-09-01T10:29:05.590Z,3.67
2018-09-01T10:31:37.625Z,4.00
2018-09-01T10:34:09.625Z,3.52
2018-09-01T10:36:41.630Z,4.33
2018-09-01T10:39:14.114Z,3.35
2018-09-01T10:41:46.103Z,4.30
2018-09-01T10:44:18.111Z,4.25
2018-09-01T10:46:50.118Z,3.98
2018-09-01T10:49:22.118Z,3.55
2018-09-01T10:51:54.232Z,3.67
2018-09-01T10:54:26.205Z,4.05
2018-09-01T10:56:58.296Z,4.12
2018-09-01T10:59:30.423Z,3.72
2018-09-01T11:02:02.299Z,4.05
2018-09-01T11:04:34.291Z,3.85
2018-09-01T11:07:06.298Z,4.72
2018-09-01T11:09:38.295Z,4.45
2018-09-01T11:12:10.346Z,4.47
2018-09-01T11:14:42.338Z,4.22
2018-09-01T11:17:14.360Z,4.70
2018-09-01T11:19:47.074Z,6.42
2018-09-01T11:22:19.132Z,3.80
2018-09-01T11:24:51.139Z,4.12
2018-09-01T11:27:23.421Z,4.22
2018-09-01T11:29:55.341Z,4.58
2018-09-01T11:32:27.598Z,3.90
2018-09-01T11:34:59.612Z,4.00
2018-09-01T11:37:31.634Z,4.42
2018-09-01T11:40:03.739Z,3.72
2018-09-01T11:42:35.859Z,4.03
2018-09-01T11:45:07.803Z,4.10
2018-09-01T11:47:39.831Z,4.30
2018-09-01T11:50:11.921Z,4.35
2018-09-01T11:52:43.967Z,4.33
2018-09-01T11:55:16.000Z,4.17
2018-09-01T11:57:48.043Z,3.92
2018-09-01T12:00:20.035Z,4.47
2018-09-01T12:02:52.086Z,4.15
2018-09-01T12:05:24.098Z,4.92
2018-09-01T12:07:56.165Z,4.22
2018-09-01T12:10:28.170Z,5.22
2018-09-01T12:13:00.157Z,3.92
2018-09-01T12:15:32.186Z,4.22
2018-09-01T12:18:04.187Z,4.45
2018-09-01T12:20:36.274Z,4.10
2018-09-01T12:23:08.326Z,4.25
2018-09-01T12:25:40.421Z,3.52
2018-09-01T12:28:12.511Z,4.50
2018-09-01T12:30:44.531Z,4.35
2018-09-01T12:33:16.645Z,4.30
2018-09-01T12:35:48.719Z,4.20
2018-09-01T12:38:20.873Z,4.62
2018-09-01T12:40:52.956Z,4.15
2018-09-01T12:43:24.985Z,4.67
2018-09-01T12:45:56.989Z,4.37
2018-09-01T12:48:29.003Z,4.33
2018-09-01T12:51:00.993Z,4.55
2018-09-01T12:53:33.046Z,4.67
2018-09-01T12:56:05.401Z,4.70
2018-09-01T12:58:37.426Z,4.70
2018-09-01T13:01:09.532Z,4.17
2018-09-01T13:03:41.580Z,4.15
2018-09-01T13:06:13.594Z,3.52
2018-09-01T13:08:45.613Z,4.53
2018-09-01T13:11:17.642Z,4.28
2018-09-01T13:13:49.634Z,4.17
2018-09-01T13:16:21.643Z,4.67
2018-09-01T13:18:53.686Z,4.37
2018-09-01T13:21:25.666Z,4.35
2018-09-01T13:23:57.732Z,4.67
2018-09-01T13:26:29.718Z,5.00
2018-09-01T13:29:01.751Z,4.72
2018-09-01T13:31:33.746Z,3.98
2018-09-01T13:34:05.817Z,4.33
2018-09-01T13:36:37.858Z,4.22
2018-09-01T13:39:10.010Z,4.67
2018-09-01T13:41:42.131Z,4.53
2018-09-01T13:44:14.201Z,4.12
2018-09-01T13:46:46.226Z,4.30
2018-09-01T13:49:18.266Z,4.50
2018-09-01T13:51:52.010Z,4.80
2018-09-01T13:54:24.001Z,4.40
2018-09-01T13:56:55.997Z,4.58
2018-09-01T13:59:28.001Z,4.90
2018-09-01T14:02:00.217Z,4.62
2018-09-01T14:04:32.338Z,4.97
2018-09-01T14:07:05.365Z,4.28
2018-09-01T14:09:37.450Z,4.87
2018-09-01T14:12:09.450Z,4.37
2018-09-01T14:14:41.750Z,4.12
2018-09-01T14:17:13.716Z,4.60
2018-09-01T14:19:45.740Z,4.75
2018-09-01T14:22:17.765Z,4.30
2018-09-01T14:24:49.851Z,4.50
2018-09-01T14:27:21.897Z,4.37
2018-09-01T14:29:53.969Z,5.08
2018-09-01T14:32:26.034Z,4.37
2018-09-01T14:34:58.099Z,4.17
2018-09-01T14:37:30.114Z,4.03
2018-09-01T14:40:02.127Z,4.12
2018-09-01T14:42:34.212Z,4.42
2018-09-01T14:45:06.234Z,4.90
2018-09-01T14:47:38.233Z,4.55
2018-09-01T14:50:10.251Z,4.85
2018-09-01T14:52:42.270Z,4.40
2018-09-01T14:55:14.313Z,4.80
2018-09-01T14:57:46.326Z,4.92
2018-09-01T15:00:18.397Z,4.30
2018-09-01T15:02:50.400Z,4.80
2018-09-01T15:05:22.430Z,4.20
2018-09-01T15:07:54.460Z,4.45
2018-09-01T15:10:26.519Z,4.80
2018-09-01T15:12:58.470Z,5.20
2018-09-01T15:15:30.491Z,4.12
2018-09-01T15:18:02.507Z,4.03
2018-09-01T15:20:34.617Z,4.95
2018-09-01T15:23:06.739Z,4.17
2018-09-01T15:25:38.786Z,5.25
2018-09-01T15:28:10.814Z,4.67
2018-09-01T15:30:42.998Z,4.87
2018-09-01T15:33:15.025Z,4.40
2018-09-01T15:35:47.028Z,4.78
2018-09-01T15:38:19.115Z,4.58
2018-09-01T15:40:51.263Z,4.53
2018-09-01T15:43:23.406Z,3.77
2018-09-01T15:45:55.573Z,4.83
2018-09-01T15:48:27.592Z,3.42
2018-09-01T15:50:59.601Z,4.60
2018-09-01T15:53:31.622Z,4.62
2018-09-01T15:56:03.592Z,4.42
2018-09-01T15:58:35.615Z,4.65
2018-09-01T16:01:07.625Z,4.78
2018-09-01T16:03:39.794Z,4.80
2018-09-01T16:06:11.934Z,4.40
2018-09-01T16:08:43.958Z,4.75
2018-09-01T16:11:16.040Z,5.25
2018-09-01T16:13:48.026Z,4.12
2018-09-01T16:16:20.062Z,4.58
2018-09-01T16:18:52.042Z,4.00
2018-09-01T16:21:24.058Z,4.30
2018-09-01T16:23:56.101Z,4.90
2018-09-01T16:26:28.154Z,4.25
2018-09-01T16:29:00.216Z,4.85
2018-09-01T16:31:32.296Z,4.35
2018-09-01T16:34:04.667Z,6.80
2018-09-01T16:36:36.689Z,13.38
2018-09-01T16:39:08.686Z,9.38
2018-09-01T16:41:40.750Z,8.00
2018-09-01T16:44:12.865Z,5.97
2018-09-01T16:46:44.966Z,6.35
2018-09-01T16:49:17.023Z,7.00
2018-09-01T16:51:49.054Z,6.72
2018-09-01T16:54:21.098Z,8.23
2018-09-01T16:56:53.138Z,11.12
2018-09-01T16:59:25.254Z,8.08
2018-09-01T17:01:57.284Z,7.78
2018-09-01T17:04:29.520Z,7.05
2018-09-01T17:07:01.576Z,6.25
2018-09-01T17:09:34.209Z,6.80
2018-09-01T17:12:06.125Z,6.03
2018-09-01T17:14:38.162Z,17.62
2018-09-01T17:17:10.151Z,23.95
2018-09-01T17:19:42.225Z,18.25
2018-09-01T17:22:14.319Z,12.25
2018-09-01T17:24:46.354Z,8.17
2018-09-01T17:27:18.366Z,11.03
2018-09-01T17:29:50.403Z,4.87
2018-09-01T17:32:22.445Z,3.95
2018-09-01T17:34:54.478Z,4.23
2018-09-01T17:37:26.479Z,4.10
2018-09-01T17:39:58.527Z,5.10
2018-09-01T17:42:30.530Z,5.27
2018-09-01T17:45:02.614Z,3.80
2018-09-01T17:47:34.706Z,4.87
2018-09-01T17:50:06.769Z,4.60
2018-09-01T17:52:38.830Z,15.48
2018-09-01T17:55:10.959Z,13.27
2018-09-01T17:57:42.947Z,12.63
2018-09-01T18:00:15.042Z,12.67
2018-09-01T18:02:47.057Z,12.10
2018-09-01T18:05:19.067Z,11.67
2018-09-01T18:07:51.597Z,15.13
2018-09-01T18:10:23.995Z,14.30
2018-09-01T18:12:56.052Z,15.23
2018-09-01T18:15:28.139Z,14.50
2018-09-01T18:18:00.157Z,14.73
2018-09-01T18:20:32.173Z,14.87
2018-09-01T18:23:04.310Z,14.90
2018-09-01T18:25:36.302Z,13.47
2018-09-01T18:28:08.313Z,13.27
2018-09-01T18:30:40.317Z,12.70
2018-09-01T18:33:12.343Z,15.57
2018-09-01T18:35:44.353Z,13.90
2018-09-01T18:38:16.574Z,11.67
2018-09-01T18:40:48.714Z,9.67
2018-09-01T18:43:20.724Z,8.50
2018-09-01T18:45:52.743Z,8.27
2018-09-01T18:48:24.781Z,7.40
2018-09-01T18:50:56.834Z,7.33
2018-09-01T18:54:08.918Z,6.93
2018-09-01T18:56:40.956Z,6.03
2018-09-01T18:59:13.023Z,8.00
2018-09-01T19:01:45.046Z,6.67
2018-09-01T19:04:17.335Z,5.83
2018-09-01T19:06:49.427Z,6.33
2018-09-01T19:09:21.462Z,8.03
2018-09-01T19:11:53.518Z,5.80
2018-09-01T19:14:25.557Z,4.43
2018-09-01T19:16:57.601Z,4.30
2018-09-01T19:19:31.155Z,5.67
2018-09-01T19:22:03.222Z,5.50
2018-09-01T19:24:35.365Z,5.80
2018-09-01T19:27:08.960Z,4.83
2018-09-01T19:29:41.025Z,4.37
2018-09-01T19:32:13.082Z,4.60
2018-09-01T19:34:45.270Z,5.10
2018-09-01T19:37:18.105Z,3.67
2018-09-01T19:39:50.115Z,3.97
2018-09-01T19:42:22.171Z,3.80
2018-09-01T19:44:57.090Z,3.57
2018-09-01T19:47:29.194Z,3.57
2018-09-01T19:50:01.268Z,3.20
2018-09-01T19:52:33.370Z,2.97
2018-09-01T19:55:06.163Z,3.47
2018-09-01T19:57:38.303Z,3.43
2018-09-01T20:00:11.593Z,3.47
2018-09-01T20:02:43.626Z,3.50
2018-09-01T20:05:15.701Z,3.87
2018-09-01T20:07:47.750Z,3.03
2018-09-01T20:10:19.811Z,3.40
2018-09-01T20:12:51.939Z,3.10
2018-09-01T20:15:25.611Z,3.17
2018-09-01T20:17:57.645Z,3.20
2018-09-01T20:20:29.904Z,3.17
2018-09-01T20:23:06.058Z,3.50
2018-09-01T20:25:38.127Z,3.70
2018-09-01T20:28:10.205Z,3.00
2018-09-01T20:30:42.302Z,3.13
2018-09-01T20:33:14.375Z,3.47
2018-09-01T20:35:53.479Z,4.27
2018-09-01T20:38:29.670Z,4.13
2018-09-01T20:41:01.781Z,3.90
2018-09-01T20:43:33.798Z,4.23
2018-09-01T20:46:05.966Z,4.00
2018-09-01T20:48:37.980Z,3.77
2018-09-01T20:51:12.505Z,3.47
2018-09-01T20:53:45.084Z,4.97
2018-09-01T20:56:17.120Z,3.77
2018-09-01T20:58:49.130Z,3.40
2018-09-01T21:01:22.604Z,3.97
2018-09-01T21:03:54.676Z,4.17
2018-09-01T21:06:26.902Z,4.30
2018-09-01T21:08:58.969Z,4.23
2018-09-01T21:11:30.991Z,4.43
2018-09-01T21:14:03.087Z,4.10
2018-09-01T21:16:35.132Z,4.27
2018-09-01T21:19:07.210Z,4.27
2018-09-01T21:21:39.207Z,5.43
2018-09-01T21:24:11.317Z,4.67
2018-09-01T21:26:43.381Z,4.23
2018-09-01T21:29:15.418Z,6.10
2018-09-01T21:31:47.401Z,5.23
2018-09-01T21:34:19.479Z,6.13
2018-09-01T21:36:51.571Z,4.53
2018-09-01T21:39:23.638Z,4.77
2018-09-01T21:41:55.739Z,16.10
2018-09-01T21:44:27.736Z,12.37
2018-09-01T21:46:59.841Z,8.90
2018-09-01T21:49:31.856Z,7.57
2018-09-01T21:52:03.911Z,10.40
2018-09-01T21:54:36.150Z,12.80
2018-09-01T21:57:08.302Z,7.63
2018-09-01T21:59:40.326Z,7.10
2018-09-01T22:02:18.126Z,7.50
2018-09-01T22:04:56.089Z,7.10
2018-09-01T22:07:28.119Z,9.43
2018-09-01T22:10:00.163Z,6.57
2018-09-01T22:12:32.191Z,6.67
2018-09-01T22:15:04.549Z,6.50
2018-09-01T22:17:36.610Z,5.80
2018-09-01T22:20:08.641Z,6.23
2018-09-01T22:22:40.722Z,6.07
2018-09-01T22:25:12.766Z,5.17
2018-09-01T22:27:44.793Z,5.60
2018-09-01T22:30:16.816Z,5.40
2018-09-01T22:32:48.861Z,5.10
2018-09-01T22:35:20.850Z,5.20
2018-09-01T22:37:52.876Z,4.83
2018-09-01T22:40:24.948Z,5.17
2018-09-01T22:42:56.974Z,5.80
2018-09-01T22:45:29.011Z,4.87
2018-09-01T22:48:01.047Z,4.60
2018-09-01T22:50:33.052Z,5.33
2018-09-01T22:53:05.120Z,4.83
2018-09-01T22:55:37.246Z,5.20
2018-09-01T22:58:09.263Z,5.90
2018-09-01T23:00:41.328Z,5.27
2018-09-01T23:03:13.318Z,4.93
2018-09-01T23:05:45.352Z,6.20
2018-09-01T23:08:17.406Z,4.87
2018-09-01T23:10:49.459Z,6.03
2018-09-01T23:13:21.481Z,5.97
2018-09-01T23:15:53.498Z,6.37
2018-09-01T23:18:25.577Z,6.73
2018-09-01T23:20:57.598Z,5.90
2018-09-01T23:23:29.631Z,5.70
2018-09-01T23:26:01.662Z,5.73
2018-09-01T23:28:33.703Z,5.37
2018-09-01T23:31:05.742Z,5.80
2018-09-01T23:33:38.047Z,6.87
2018-09-01T23:36:09.975Z,5.97
2018-09-01T23:38:42.014Z,6.47
2018-09-01T23:41:14.047Z,6.00
2018-09-01T23:43:46.081Z,6.20
2018-09-01T23:46:18.154Z,6.53
2018-09-01T23:48:50.181Z,6.37
2018-09-01T23:51:22.197Z,6.37
2018-09-01T23:53:54.174Z,6.13
2018-09-01T23:56:26.195Z,6.73
2018-09-01T23:58:58.213Z,6.57
